Strona główna
METAR-TAF:

METAR-TAF

Lotnisko :

Kingston, Ontario, Kanada

Szerokość geograficzna: 44-13N, Długość geograficzna: 076-36W, wysokość: 93 m

Aktualna obserwacja pogody

Raport powstał 5 godziny i 55 minut temu, godzina 04:00 UTC
Wiatr 7 kt od zachodnio-północny zachód
Temperatura -12°C
Wilgotność 78%
Ciśnienie 1030 hPa
Widzialność: 24.1 km
bezchmurnie

METAR: CYGK 210400Z 29007KT 15SM SKC M12/M15 A3043 RMK LAST STFD OBS / NXT 211100Z SLP313

czas: 04:55 (09:55 UTC)

Prognoza

Raport powstał 8 godziny i 14 minut temu, godzina 01:41 UTC
Prognoza ważna od 21 godzina 02 UTC do 21 godzina 04 UTC
Wiatr 7 kt od zachód
Widzialność: 10 km
Mało chmury na wysokości 2500 ft

TAF: CYGK 210141Z 2102/2104 27007KT P6SM FEW025 RMK NXT FCST WILL BE ISSUED AT 211245Z

Obserwacja i prognoza pogody dla ponad 4000 lotnisk (raport METAR i TAF).

Dostępne stacje oznaczono żółtymi i czerwonymi punktami na mapie.

Najedź kursorem aby zobaczyć nazwę stacji.

Kliknij aby zobaczyć obserwacje i prognozy pogody.

Aby zmienić mapę: kliknij na zielony przycisk z czarnym krzyżykiem, aby powiększyć; na zielony przycisk z myślnikiem, aby pomniejszyć; na zielone strzałki, aby przejść do map sąsiednich.


METAR-TAF: